createdAt,value
2022-11-06T00:02:09.497Z,2.76
2022-11-06T00:04:54.844Z,2.69
2022-11-06T00:07:40.174Z,2.63
2022-11-06T00:10:25.892Z,2.57
2022-11-06T00:13:11.589Z,2.55
2022-11-06T00:15:57.049Z,2.53
2022-11-06T00:18:42.698Z,2.50
2022-11-06T00:21:30.380Z,2.48
2022-11-06T00:24:16.457Z,2.40
2022-11-06T00:27:01.928Z,2.30
2022-11-06T00:29:47.427Z,2.22
2022-11-06T00:32:32.980Z,2.16
2022-11-06T00:35:18.338Z,2.08
2022-11-06T00:38:04.032Z,1.97
2022-11-06T00:40:49.683Z,1.90
2022-11-06T00:43:38.680Z,1.88
2022-11-06T00:46:24.834Z,1.86
2022-11-06T00:49:10.356Z,1.84
2022-11-06T00:51:55.866Z,1.83
2022-11-06T00:54:41.371Z,1.81
2022-11-06T00:57:26.718Z,1.80
2022-11-06T01:00:12.966Z,1.75
2022-11-06T01:02:58.752Z,1.72
2022-11-06T01:05:44.066Z,1.67
2022-11-06T01:08:29.628Z,1.61
2022-11-06T01:11:20.590Z,1.58
2022-11-06T01:14:07.039Z,1.60
2022-11-06T01:16:53.141Z,1.62
2022-11-06T01:19:38.713Z,1.64
2022-11-06T01:22:23.870Z,1.65
2022-11-06T01:25:09.273Z,1.64
2022-11-06T01:27:54.516Z,1.64
2022-11-06T01:30:39.961Z,1.63
2022-11-06T01:33:25.404Z,1.56
2022-11-06T01:36:13.496Z,1.51
2022-11-06T01:39:03.711Z,1.45
2022-11-06T01:41:51.675Z,1.41
2022-11-06T01:44:42.925Z,1.39
2022-11-06T01:47:29.444Z,1.34
2022-11-06T01:50:16.821Z,1.29
2022-11-06T01:53:02.777Z,1.26
2022-11-06T01:55:56.101Z,1.22
2022-11-06T01:58:44.218Z,1.15
2022-11-06T02:01:34.093Z,1.12
2022-11-06T02:04:25.611Z,1.11
2022-11-06T02:07:12.152Z,1.11
2022-11-06T02:09:57.447Z,1.11
2022-11-06T02:13:05.724Z,1.09
2022-11-06T02:16:11.179Z,1.07
2022-11-06T02:19:35.581Z,1.04
2022-11-06T02:22:48.664Z,0.98
2022-11-06T02:26:02.654Z,0.93
2022-11-06T02:28:56.004Z,0.93
2022-11-06T02:31:42.850Z,0.93
2022-11-06T02:34:30.189Z,0.89
2022-11-06T02:37:20.572Z,0.89
2022-11-06T02:40:09.753Z,0.91
2022-11-06T02:42:57.641Z,0.92
2022-11-06T02:45:52.342Z,0.93
2022-11-06T02:48:44.664Z,0.93
2022-11-06T02:51:33.878Z,0.89
2022-11-06T02:54:23.882Z,0.84
2022-11-06T02:57:15.667Z,0.80
2022-11-06T03:00:09.524Z,0.76
2022-11-06T03:03:02.642Z,0.77
2022-11-06T03:05:55.227Z,0.78
2022-11-06T03:09:16.086Z,0.80
2022-11-06T03:12:25.267Z,0.84
2022-11-06T03:15:24.977Z,0.82
2022-11-06T03:18:19.299Z,0.83
2022-11-06T03:21:27.853Z,0.83
2022-11-06T03:24:19.967Z,0.85
2022-11-06T03:27:17.060Z,0.88
2022-11-06T03:30:06.942Z,0.92
2022-11-06T03:33:17.492Z,0.96
2022-11-06T03:36:10.639Z,1.01
2022-11-06T03:39:05.563Z,1.06
2022-11-06T03:41:50.822Z,1.10
2022-11-06T03:44:41.497Z,1.15
2022-11-06T03:47:36.545Z,1.20
2022-11-06T03:50:28.379Z,1.24
2022-11-06T03:53:28.041Z,1.30
2022-11-06T03:56:29.071Z,1.36
2022-11-06T03:59:18.656Z,1.40
2022-11-06T04:02:04.204Z,1.44
2022-11-06T04:04:57.602Z,1.49
2022-11-06T04:08:08.203Z,1.52
2022-11-06T04:11:18.364Z,1.54
2022-11-06T04:14:05.988Z,1.56
2022-11-06T04:16:56.068Z,1.60
2022-11-06T04:19:52.382Z,1.63
2022-11-06T04:22:50.175Z,1.64
2022-11-06T04:26:21.227Z,1.67
2022-11-06T04:29:15.909Z,1.69
2022-11-06T04:32:20.513Z,1.69
2022-11-06T04:35:18.112Z,1.72
2022-11-06T04:38:10.963Z,1.73
2022-11-06T04:41:12.673Z,1.74
2022-11-06T04:44:29.084Z,1.75
2022-11-06T04:47:20.885Z,1.77
2022-11-06T04:50:09.547Z,1.79
2022-11-06T04:52:56.366Z,1.81
2022-11-06T04:55:50.200Z,1.84
2022-11-06T04:58:35.418Z,1.87
2022-11-06T05:01:21.357Z,1.89
2022-11-06T05:04:06.806Z,1.92
2022-11-06T05:06:52.274Z,1.95
2022-11-06T05:09:37.965Z,1.98
2022-11-06T05:12:23.436Z,2.01
2022-11-06T05:15:09.086Z,2.04
2022-11-06T05:17:54.777Z,2.07
2022-11-06T05:20:40.200Z,2.12
2022-11-06T05:23:25.596Z,2.14
2022-11-06T05:26:11.108Z,2.17
2022-11-06T05:28:56.655Z,2.21
2022-11-06T05:31:42.100Z,2.22
2022-11-06T05:34:27.864Z,2.25
2022-11-06T05:37:13.484Z,2.27
2022-11-06T05:39:58.870Z,2.29
2022-11-06T05:42:44.720Z,2.28
2022-11-06T05:45:30.208Z,2.29
2022-11-06T05:48:15.931Z,2.31
2022-11-06T05:51:07.335Z,2.31
2022-11-06T05:53:52.989Z,2.32
2022-11-06T05:56:38.365Z,2.33
2022-11-06T05:59:23.803Z,2.33
2022-11-06T06:02:09.919Z,2.34
2022-11-06T06:04:55.400Z,2.35
2022-11-06T06:07:41.288Z,2.36
2022-11-06T06:10:26.511Z,2.35
2022-11-06T06:13:12.786Z,2.34
2022-11-06T06:16:01.890Z,2.36
2022-11-06T06:18:49.982Z,2.36
2022-11-06T06:21:36.728Z,2.36
2022-11-06T06:24:22.183Z,2.36
2022-11-06T06:27:07.620Z,2.35
2022-11-06T06:29:54.112Z,2.34
2022-11-06T06:32:39.843Z,2.32
2022-11-06T06:35:25.241Z,2.31
2022-11-06T06:38:11.102Z,2.30
2022-11-06T06:41:04.127Z,2.27
2022-11-06T06:43:49.676Z,2.24
2022-11-06T06:46:35.282Z,2.21
2022-11-06T06:49:20.775Z,2.18
2022-11-06T06:52:06.153Z,2.15
2022-11-06T06:54:51.588Z,2.09
2022-11-06T06:57:37.018Z,2.04
2022-11-06T07:00:22.386Z,2.01
2022-11-06T07:03:08.316Z,2.00
2022-11-06T07:05:54.226Z,2.01
2022-11-06T07:08:39.615Z,2.02
2022-11-06T07:11:24.984Z,2.04
2022-11-06T07:14:11.074Z,2.04
2022-11-06T07:16:56.416Z,2.08
2022-11-06T07:19:41.810Z,2.14
2022-11-06T07:22:32.361Z,2.22
2022-11-06T07:25:22.459Z,2.33
2022-11-06T07:28:08.753Z,2.43
2022-11-06T07:30:59.768Z,2.52
2022-11-06T07:33:45.645Z,2.62
2022-11-06T07:36:32.982Z,2.71
2022-11-06T07:39:18.272Z,2.83
2022-11-06T07:42:03.740Z,2.94
2022-11-06T07:44:55.619Z,3.03
2022-11-06T07:47:40.991Z,3.13
2022-11-06T07:50:27.003Z,3.21
2022-11-06T07:53:12.464Z,3.31
2022-11-06T07:55:58.087Z,3.39
2022-11-06T07:58:43.774Z,3.48
2022-11-06T08:01:29.532Z,3.57
2022-11-06T08:04:14.996Z,3.65
2022-11-06T08:07:00.250Z,3.73
2022-11-06T08:09:45.942Z,3.83
2022-11-06T08:12:31.444Z,3.94
2022-11-06T08:15:17.060Z,4.05
2022-11-06T08:18:02.525Z,4.16
2022-11-06T08:20:48.061Z,4.26
2022-11-06T08:23:35.124Z,4.37
2022-11-06T08:26:20.472Z,4.47
2022-11-06T08:29:06.004Z,4.57
2022-11-06T08:31:51.665Z,4.68
2022-11-06T08:34:37.368Z,4.79
2022-11-06T08:37:22.789Z,4.90
2022-11-06T08:40:08.838Z,5.01
2022-11-06T08:42:59.074Z,5.14
2022-11-06T08:45:44.708Z,5.28
2022-11-06T08:48:30.244Z,5.41
2022-11-06T08:51:15.662Z,5.53
2022-11-06T08:54:01.108Z,5.65
2022-11-06T08:56:46.383Z,5.75
2022-11-06T08:59:32.942Z,5.87
2022-11-06T09:02:18.604Z,5.98
2022-11-06T09:05:04.117Z,6.09
2022-11-06T09:07:49.820Z,6.20
2022-11-06T09:10:35.387Z,6.31
2022-11-06T09:13:20.912Z,6.39
2022-11-06T09:16:11.351Z,6.49
2022-11-06T09:19:00.187Z,6.61
2022-11-06T09:21:48.056Z,6.72
2022-11-06T09:25:01.888Z,6.81
2022-11-06T09:27:44.531Z,6.92
2022-11-06T09:30:31.982Z,7.03
2022-11-06T09:33:17.630Z,7.13
2022-11-06T09:36:07.144Z,7.23
2022-11-06T09:38:52.957Z,7.34
2022-11-06T09:42:06.344Z,7.46
2022-11-06T09:45:13.834Z,7.58
2022-11-06T09:48:05.474Z,7.68
2022-11-06T09:51:16.876Z,7.78
2022-11-06T09:54:14.957Z,7.88
2022-11-06T09:57:11.443Z,7.97
2022-11-06T09:59:57.936Z,8.03
2022-11-06T10:02:49.267Z,8.09
2022-11-06T10:05:37.040Z,8.16
2022-11-06T10:08:28.537Z,8.25
2022-11-06T10:11:17.040Z,8.31
2022-11-06T10:14:27.459Z,8.38
2022-11-06T10:17:21.751Z,8.48
2022-11-06T10:20:25.460Z,8.56
2022-11-06T10:23:12.534Z,8.63
2022-11-06T10:26:10.610Z,8.70
2022-11-06T10:29:15.101Z,8.77
2022-11-06T10:32:19.686Z,8.81
2022-11-06T10:35:25.714Z,8.86
2022-11-06T10:38:18.511Z,8.90
2022-11-06T10:41:04.684Z,8.93
2022-11-06T10:44:02.112Z,9.00
2022-11-06T10:47:04.580Z,9.08
2022-11-06T10:49:55.427Z,9.10
2022-11-06T10:52:56.204Z,9.14
2022-11-06T10:56:08.145Z,9.19
2022-11-06T10:58:56.439Z,9.25
2022-11-06T11:01:42.144Z,9.29
2022-11-06T11:04:27.921Z,9.32
2022-11-06T11:07:21.389Z,9.39
2022-11-06T11:10:28.422Z,9.46
2022-11-06T11:13:20.856Z,9.50
2022-11-06T11:16:16.042Z,9.53
2022-11-06T11:19:35.601Z,9.54
2022-11-06T11:22:22.099Z,9.59
2022-11-06T11:25:24.758Z,9.60
2022-11-06T11:28:27.504Z,9.64
2022-11-06T11:31:16.211Z,9.67
2022-11-06T11:34:15.809Z,9.70
2022-11-06T11:37:06.894Z,9.73
2022-11-06T11:39:52.300Z,9.76
2022-11-06T11:42:37.899Z,9.77
2022-11-06T11:45:23.348Z,9.81
2022-11-06T11:48:14.434Z,9.85
2022-11-06T11:51:12.994Z,9.88
2022-11-06T11:54:26.915Z,9.89
2022-11-06T11:57:23.787Z,9.87
2022-11-06T12:00:19.316Z,9.89
2022-11-06T12:03:11.144Z,9.93
2022-11-06T12:06:08.287Z,9.96
2022-11-06T12:08:55.830Z,10.00
2022-11-06T12:11:43.840Z,10.00
2022-11-06T12:14:33.638Z,10.02
2022-11-06T12:17:22.733Z,10.05
2022-11-06T12:20:17.642Z,10.07
2022-11-06T12:23:06.579Z,10.11
2022-11-06T12:26:04.977Z,10.15
2022-11-06T12:28:54.546Z,10.18
2022-11-06T12:31:47.856Z,10.22
2022-11-06T12:35:01.503Z,10.26
2022-11-06T12:38:02.546Z,10.31
2022-11-06T12:41:26.267Z,10.33
2022-11-06T12:44:15.065Z,10.36
2022-11-06T12:47:08.326Z,10.39
2022-11-06T12:50:12.017Z,10.41
2022-11-06T12:53:16.185Z,10.45
2022-11-06T12:57:02.464Z,10.50
2022-11-06T13:00:09.989Z,10.55
2022-11-06T13:06:22.701Z,10.64
2022-11-06T13:09:11.897Z,10.72
2022-11-06T13:12:09.178Z,10.78
2022-11-06T13:15:21.136Z,10.81
2022-11-06T13:18:25.733Z,10.89
2022-11-06T13:21:39.119Z,10.96
2022-11-06T13:25:07.291Z,10.96
2022-11-06T13:28:06.648Z,10.99
2022-11-06T13:30:54.125Z,10.99
2022-11-06T13:33:45.257Z,10.97
2022-11-06T13:36:32.080Z,10.97
2022-11-06T13:39:29.799Z,10.96
2022-11-06T13:42:34.171Z,10.93
2022-11-06T13:45:21.786Z,10.89
2022-11-06T13:48:26.112Z,10.86
2022-11-06T13:51:24.168Z,10.79
2022-11-06T13:54:28.174Z,10.73
2022-11-06T13:57:52.900Z,10.63
2022-11-06T14:00:53.453Z,10.51
2022-11-06T14:04:13.276Z,10.41
2022-11-06T14:07:04.190Z,10.34
2022-11-06T14:09:49.502Z,10.28
2022-11-06T14:12:35.278Z,10.23
2022-11-06T14:15:20.465Z,10.18
2022-11-06T14:18:06.306Z,10.10
2022-11-06T14:21:30.347Z,10.02
2022-11-06T14:24:29.737Z,9.93
2022-11-06T14:27:24.239Z,9.83
2022-11-06T14:30:57.519Z,9.76
2022-11-06T14:33:43.881Z,9.68
2022-11-06T14:36:38.535Z,9.61
2022-11-06T14:39:55.978Z,9.51
2022-11-06T14:42:47.492Z,9.46
2022-11-06T14:45:33.053Z,9.43
2022-11-06T14:48:34.062Z,9.31
2022-11-06T14:51:26.928Z,9.22
2022-11-06T14:54:22.418Z,9.16
2022-11-06T14:57:15.425Z,9.10
2022-11-06T15:00:01.673Z,9.05
2022-11-06T15:02:48.833Z,8.98
2022-11-06T15:05:42.126Z,8.92
2022-11-06T15:08:46.625Z,8.87
2022-11-06T15:11:50.066Z,8.82
2022-11-06T15:14:35.119Z,8.76
2022-11-06T15:17:22.439Z,8.67
2022-11-06T15:20:18.202Z,8.60
2022-11-06T15:23:11.304Z,8.54
2022-11-06T15:26:05.194Z,8.47
2022-11-06T15:29:11.730Z,8.39
2022-11-06T15:32:26.156Z,8.28
2022-11-06T15:35:27.621Z,8.16
2022-11-06T15:38:21.652Z,8.07
2022-11-06T15:41:27.747Z,7.95
2022-11-06T15:44:13.231Z,7.89
2022-11-06T15:46:59.550Z,7.82
2022-11-06T15:49:45.188Z,7.75
2022-11-06T15:52:30.864Z,7.58
2022-11-06T15:55:28.976Z,7.41
2022-11-06T15:58:24.713Z,7.21
2022-11-06T16:01:12.295Z,7.03
2022-11-06T16:03:57.821Z,6.69
2022-11-06T16:06:44.377Z,6.46
2022-11-06T16:09:29.874Z,6.26
2022-11-06T16:12:18.121Z,6.07
2022-11-06T16:15:03.643Z,5.94
2022-11-06T16:17:49.424Z,5.78
2022-11-06T16:20:34.941Z,5.67
2022-11-06T16:24:02.871Z,5.55
2022-11-06T16:26:50.730Z,5.45
2022-11-06T16:29:37.509Z,5.36
2022-11-06T16:32:26.838Z,5.30
2022-11-06T16:35:32.587Z,5.22
2022-11-06T16:38:40.613Z,5.14
2022-11-06T16:42:08.759Z,5.05
2022-11-06T16:45:20.407Z,4.99
2022-11-06T16:48:05.776Z,4.89
2022-11-06T16:50:57.175Z,4.77
2022-11-06T16:53:58.898Z,4.68
2022-11-06T16:56:44.446Z,4.60
2022-11-06T16:59:29.804Z,4.56
2022-11-06T17:02:24.544Z,4.51
2022-11-06T17:05:22.698Z,4.46
2022-11-06T17:08:25.279Z,4.39
2022-11-06T17:11:13.769Z,4.25
2022-11-06T17:13:59.391Z,4.15
2022-11-06T17:16:49.573Z,4.04
2022-11-06T17:19:35.516Z,3.98
2022-11-06T17:22:22.782Z,3.91
2022-11-06T17:25:08.540Z,3.89
2022-11-06T17:27:54.224Z,3.84
2022-11-06T17:30:40.220Z,3.78
2022-11-06T17:33:25.768Z,3.70
2022-11-06T17:36:27.198Z,3.66
2022-11-06T17:39:13.465Z,3.56
2022-11-06T17:41:59.308Z,3.44
2022-11-06T17:44:44.866Z,3.34
2022-11-06T17:47:30.179Z,3.28
2022-11-06T17:50:15.798Z,3.23
2022-11-06T17:53:01.217Z,3.14
2022-11-06T17:55:46.801Z,3.11
2022-11-06T17:58:33.627Z,3.09
2022-11-06T18:01:19.112Z,3.09
2022-11-06T18:04:05.311Z,3.07
2022-11-06T18:06:52.353Z,3.05
2022-11-06T18:09:38.083Z,3.02
2022-11-06T18:12:27.456Z,2.99
2022-11-06T18:15:13.155Z,2.95
2022-11-06T18:17:59.498Z,2.89
2022-11-06T18:20:46.436Z,2.86
2022-11-06T18:23:31.891Z,2.87
2022-11-06T18:26:21.220Z,2.85
2022-11-06T18:29:08.325Z,2.80
2022-11-06T18:31:54.354Z,2.79
2022-11-06T18:34:40.460Z,2.78
2022-11-06T18:37:26.228Z,2.72
2022-11-06T18:40:12.564Z,2.66
2022-11-06T18:42:58.306Z,2.63
2022-11-06T18:45:43.849Z,2.59
2022-11-06T18:48:31.007Z,2.56
2022-11-06T18:51:33.861Z,2.55
2022-11-06T18:54:21.189Z,2.51
2022-11-06T18:57:06.929Z,2.51
2022-11-06T18:59:52.407Z,2.50
2022-11-06T19:02:38.155Z,2.45
2022-11-06T19:05:23.576Z,2.40
2022-11-06T19:08:09.035Z,2.38
2022-11-06T19:10:54.420Z,2.33
2022-11-06T19:13:43.442Z,2.24
2022-11-06T19:16:32.870Z,2.17
2022-11-06T19:19:25.242Z,2.11
2022-11-06T19:22:11.613Z,2.05
2022-11-06T19:24:57.144Z,2.05
2022-11-06T19:27:42.644Z,2.03
2022-11-06T19:30:28.305Z,1.98
2022-11-06T19:33:14.173Z,1.95
2022-11-06T19:36:01.271Z,1.94
2022-11-06T19:38:47.210Z,1.94
2022-11-06T19:41:32.850Z,1.94
2022-11-06T19:44:18.570Z,1.95
2022-11-06T19:47:04.025Z,1.95
2022-11-06T19:49:49.391Z,1.97
2022-11-06T19:52:41.423Z,1.91
2022-11-06T19:55:28.806Z,1.90
2022-11-06T19:58:19.028Z,1.90
2022-11-06T20:01:10.156Z,1.95
2022-11-06T20:03:55.675Z,1.93
2022-11-06T20:06:41.375Z,1.89
2022-11-06T20:09:26.550Z,1.88
2022-11-06T20:12:15.343Z,1.88
2022-11-06T20:15:00.601Z,1.89
2022-11-06T20:17:46.076Z,1.93
2022-11-06T20:20:35.922Z,1.98
2022-11-06T20:23:22.239Z,2.00
2022-11-06T20:26:07.840Z,2.02
2022-11-06T20:28:53.115Z,2.05
2022-11-06T20:31:39.032Z,2.07
2022-11-06T20:34:24.329Z,2.10
2022-11-06T20:37:09.728Z,2.12
2022-11-06T20:39:55.088Z,2.15
2022-11-06T20:42:40.511Z,2.17
2022-11-06T20:45:25.851Z,2.18
2022-11-06T20:48:11.511Z,2.18
2022-11-06T20:51:02.250Z,2.21
2022-11-06T20:53:48.167Z,2.23
2022-11-06T20:56:33.915Z,2.25
2022-11-06T20:59:19.418Z,2.28
2022-11-06T21:02:05.079Z,2.28
2022-11-06T21:04:50.798Z,2.31
2022-11-06T21:07:36.476Z,2.32
2022-11-06T21:10:21.575Z,2.33
2022-11-06T21:13:07.062Z,2.33
2022-11-06T21:15:59.390Z,2.33
2022-11-06T21:18:46.100Z,2.35
2022-11-06T21:21:34.558Z,2.36
2022-11-06T21:24:20.066Z,2.37
2022-11-06T21:27:05.406Z,2.37
2022-11-06T21:29:50.943Z,2.38
2022-11-06T21:32:36.415Z,2.39
2022-11-06T21:35:21.836Z,2.41
2022-11-06T21:38:07.749Z,2.43
2022-11-06T21:40:53.088Z,2.47
2022-11-06T21:43:38.810Z,2.50
2022-11-06T21:46:24.694Z,2.53
2022-11-06T21:49:10.456Z,2.55
2022-11-06T21:52:16.026Z,2.55
2022-11-06T21:55:24.680Z,2.55
2022-11-06T21:58:10.037Z,2.55
2022-11-06T22:00:55.519Z,2.56
2022-11-06T22:03:41.425Z,2.59
2022-11-06T22:06:28.483Z,2.62
2022-11-06T22:09:14.374Z,2.65
2022-11-06T22:11:59.909Z,2.67
2022-11-06T22:14:45.232Z,2.68
2022-11-06T22:17:31.399Z,2.70
2022-11-06T22:20:17.504Z,2.73
2022-11-06T22:23:03.142Z,2.78
2022-11-06T22:25:48.657Z,2.81
2022-11-06T22:28:34.666Z,2.86
2022-11-06T22:31:20.238Z,2.92
2022-11-06T22:34:05.705Z,2.97
2022-11-06T22:36:51.075Z,3.04
2022-11-06T22:39:36.525Z,3.08
2022-11-06T22:42:22.083Z,3.12
2022-11-06T22:45:07.911Z,3.15
2022-11-06T22:47:53.490Z,3.18
2022-11-06T22:50:39.258Z,3.21
2022-11-06T22:53:24.598Z,3.26
2022-11-06T22:56:12.540Z,3.28
2022-11-06T22:59:01.002Z,3.33
2022-11-06T23:01:46.474Z,3.35
2022-11-06T23:04:31.840Z,3.39
2022-11-06T23:07:17.129Z,3.43
2022-11-06T23:10:02.643Z,3.46
2022-11-06T23:12:47.895Z,3.49
2022-11-06T23:15:33.343Z,3.50
2022-11-06T23:18:18.855Z,3.51
2022-11-06T23:21:15.806Z,3.51
2022-11-06T23:24:01.120Z,3.56
2022-11-06T23:26:47.501Z,3.57
2022-11-06T23:29:32.924Z,3.60
2022-11-06T23:32:18.623Z,3.61
2022-11-06T23:35:09.159Z,3.62
2022-11-06T23:37:58.411Z,3.62
2022-11-06T23:40:43.854Z,3.64
2022-11-06T23:43:29.267Z,3.66
2022-11-06T23:46:26.094Z,3.68
2022-11-06T23:49:11.561Z,3.69
2022-11-06T23:51:57.175Z,3.71
2022-11-06T23:54:42.710Z,3.72
2022-11-06T23:57:28.432Z,3.74
